Terminal Aerodrome Forecast
Issued by NWS Wilmington, OH

Current Version | Previous Version | Graphics & Text | Print | Product List | Glossary On
Versions: 1 2 3 4 5 6 7 8 9 10 11 12 13 14 15 16 17 18 19 20 21 22 23 24 25 26 27 28 29 30 31 32 33
000
FTUS41 KILN 291900 AAB
TAFDAY
TAF AMD
KDAY 291912Z 2919/3018 25021G30KT 3SM BR VCSH OVC028
      TEMPO 2919/2921 2SM BR OVC013
     FM292100 28018G28KT P6SM OVC009
     FM300000 29016G24KT P6SM OVC012
     FM300900 31015G22KT P6SM OVC022
     FM301500 34014G22KT P6SM SCT025=

USA.gov is the U.S. government's official web portal to all federal, state and local government web resources and services.